createdAt,value
2024-02-10T00:00:58.877Z,16.67
2024-02-10T00:03:25.317Z,9.13
2024-02-10T00:05:51.814Z,13.13
2024-02-10T00:08:18.296Z,8.97
2024-02-10T00:10:44.908Z,16.83
2024-02-10T00:13:12.798Z,13.03
2024-02-10T00:15:41.685Z,21.07
2024-02-10T00:18:09.903Z,11.47
2024-02-10T00:20:37.891Z,11.07
2024-02-10T00:23:05.247Z,7.83
2024-02-10T00:25:32.865Z,12.20
2024-02-10T00:28:01.471Z,7.80
2024-02-10T00:30:30.384Z,10.63
2024-02-10T00:32:57.192Z,13.63
2024-02-10T00:35:24.284Z,14.23
2024-02-10T00:37:51.176Z,9.63
2024-02-10T00:40:17.755Z,10.20
2024-02-10T00:42:44.199Z,10.07
2024-02-10T00:45:10.776Z,5.80
2024-02-10T00:47:37.418Z,4.67
2024-02-10T00:50:04.542Z,4.40
2024-02-10T00:52:31.106Z,2.73
2024-02-10T00:54:57.569Z,2.77
2024-02-10T00:57:24.369Z,3.03
2024-02-10T00:59:50.816Z,3.70
2024-02-10T01:02:20.583Z,3.40
2024-02-10T01:04:48.484Z,3.87
2024-02-10T01:07:16.420Z,4.50
2024-02-10T01:09:50.141Z,6.30
2024-02-10T01:12:17.445Z,7.77
2024-02-10T01:14:44.347Z,7.13
2024-02-10T01:17:12.016Z,8.10
2024-02-10T01:19:51.118Z,8.70
2024-02-10T01:22:29.978Z,7.47
2024-02-10T01:24:57.067Z,7.60
2024-02-10T01:27:28.693Z,6.67
2024-02-10T01:29:56.746Z,5.63
2024-02-10T01:32:26.609Z,5.90
2024-02-10T01:34:54.791Z,5.27
2024-02-10T01:37:22.371Z,5.20
2024-02-10T01:39:50.290Z,5.20
2024-02-10T01:42:19.299Z,4.73
2024-02-10T01:44:46.428Z,5.20
2024-02-10T01:47:14.986Z,5.00
2024-02-10T01:49:45.022Z,5.53
2024-02-10T01:52:13.590Z,5.87
2024-02-10T01:54:40.840Z,5.67
2024-02-10T01:57:08.817Z,4.53
2024-02-10T01:59:36.622Z,4.43
2024-02-10T02:02:06.879Z,5.00
2024-02-10T02:04:37.863Z,5.07
2024-02-10T02:07:10.080Z,5.30
2024-02-10T02:09:37.349Z,5.30
2024-02-10T02:12:08.347Z,4.20
2024-02-10T02:14:38.360Z,4.13
2024-02-10T02:17:10.452Z,4.70
2024-02-10T02:19:41.967Z,4.33
2024-02-10T02:22:11.504Z,5.03
2024-02-10T02:24:38.157Z,5.20
2024-02-10T02:27:07.128Z,4.40
2024-02-10T02:29:33.714Z,5.00
2024-02-10T02:32:01.286Z,4.30
2024-02-10T02:34:28.840Z,4.33
2024-02-10T02:36:55.385Z,4.97
2024-02-10T02:39:22.090Z,7.53
2024-02-10T02:41:49.033Z,4.03
2024-02-10T02:44:16.102Z,3.87
2024-02-10T02:46:43.750Z,4.40
2024-02-10T02:49:10.883Z,4.97
2024-02-10T02:51:37.328Z,5.30
2024-02-10T02:54:03.922Z,4.87
2024-02-10T02:56:30.328Z,4.50
2024-02-10T02:58:57.162Z,5.70
2024-02-10T03:01:27.053Z,5.13
2024-02-10T03:03:54.090Z,5.60
2024-02-10T03:06:21.680Z,5.57
2024-02-10T03:08:48.720Z,6.10
2024-02-10T03:11:19.536Z,5.73
2024-02-10T03:13:49.663Z,6.07
2024-02-10T03:16:20.420Z,4.63
2024-02-10T03:18:47.842Z,6.40
2024-02-10T03:21:15.435Z,8.67
2024-02-10T03:23:42.267Z,6.20
2024-02-10T03:26:09.008Z,5.50
2024-02-10T03:28:35.663Z,6.60
2024-02-10T03:31:08.882Z,5.37
2024-02-10T03:33:35.969Z,6.03
2024-02-10T03:36:04.194Z,5.13
2024-02-10T03:38:32.237Z,7.10
2024-02-10T03:40:58.716Z,7.63
2024-02-10T03:43:28.888Z,12.43
2024-02-10T03:45:55.605Z,7.57
2024-02-10T03:48:22.273Z,11.33
2024-02-10T03:50:49.103Z,12.23
2024-02-10T03:53:15.734Z,7.90
2024-02-10T03:55:42.572Z,7.80
2024-02-10T03:58:10.596Z,7.77
2024-02-10T04:00:39.647Z,5.73
2024-02-10T04:03:09.274Z,6.27
2024-02-10T04:05:36.104Z,6.57
2024-02-10T04:08:03.878Z,9.00
2024-02-10T04:10:30.395Z,7.97
2024-02-10T04:12:57.135Z,13.03
2024-02-10T04:15:23.859Z,11.53
2024-02-10T04:17:54.090Z,18.10
2024-02-10T04:20:24.283Z,8.87
2024-02-10T04:22:51.127Z,5.87
2024-02-10T04:25:17.625Z,5.87
2024-02-10T04:27:44.387Z,5.00
2024-02-10T04:30:14.712Z,5.33
2024-02-10T04:32:43.713Z,6.83
2024-02-10T04:35:10.885Z,5.53
2024-02-10T04:37:37.525Z,8.70
2024-02-10T04:40:04.870Z,6.40
2024-02-10T04:42:32.279Z,6.00
2024-02-10T04:44:59.955Z,16.07
2024-02-10T04:47:26.808Z,4.80
2024-02-10T04:49:53.672Z,6.00
2024-02-10T04:52:20.148Z,6.17
2024-02-10T04:54:46.548Z,6.50
2024-02-10T04:57:13.025Z,6.20
2024-02-10T04:59:39.704Z,6.63
2024-02-10T05:02:06.169Z,5.87
2024-02-10T05:04:32.671Z,6.33
2024-02-10T05:06:59.083Z,6.20
2024-02-10T05:09:25.478Z,6.50
2024-02-10T05:11:51.858Z,6.27
2024-02-10T05:14:18.327Z,6.03
2024-02-10T05:16:44.741Z,7.10
2024-02-10T05:19:11.366Z,7.13
2024-02-10T05:21:39.157Z,6.60
2024-02-10T05:24:13.729Z,5.73
2024-02-10T05:26:41.547Z,5.83
2024-02-10T05:29:11.357Z,5.80
2024-02-10T05:31:38.589Z,5.63
2024-02-10T05:34:05.999Z,5.83
2024-02-10T05:36:38.570Z,6.03
2024-02-10T05:39:09.868Z,6.33
2024-02-10T05:41:42.259Z,5.40
2024-02-10T05:44:13.990Z,6.07
2024-02-10T05:46:44.984Z,8.10
2024-02-10T05:49:11.631Z,5.83
2024-02-10T05:51:41.482Z,6.53
2024-02-10T05:54:07.989Z,6.03
2024-02-10T05:56:37.029Z,6.80
2024-02-10T05:59:06.379Z,6.43
2024-02-10T06:01:32.897Z,5.50
2024-02-10T06:03:59.749Z,5.37
2024-02-10T06:06:26.300Z,5.67
2024-02-10T06:08:52.737Z,5.77
2024-02-10T06:11:20.191Z,5.07
2024-02-10T06:13:52.789Z,5.27
2024-02-10T06:16:22.836Z,5.17
2024-02-10T06:18:50.775Z,5.37
2024-02-10T06:21:17.402Z,5.90
2024-02-10T06:23:43.900Z,5.73
2024-02-10T06:26:14.869Z,5.57
2024-02-10T06:28:41.473Z,5.60
2024-02-10T06:31:13.340Z,6.43
2024-02-10T06:33:39.876Z,11.07
2024-02-10T06:36:06.485Z,24.13
2024-02-10T06:38:36.150Z,5.10
2024-02-10T06:41:03.523Z,5.83
2024-02-10T06:43:32.754Z,5.13
2024-02-10T06:46:01.681Z,14.03
2024-02-10T06:48:28.553Z,4.70
2024-02-10T06:50:59.186Z,4.33
2024-02-10T06:53:25.775Z,18.43
2024-02-10T06:55:52.840Z,5.80
2024-02-10T06:58:22.845Z,5.80
2024-02-10T07:00:49.382Z,10.50
2024-02-10T07:03:18.866Z,20.80
2024-02-10T07:05:51.249Z,3.20
2024-02-10T07:08:18.132Z,4.97
2024-02-10T07:10:47.484Z,9.00
2024-02-10T07:13:15.840Z,5.60
2024-02-10T07:15:42.872Z,5.33
2024-02-10T07:18:12.509Z,5.87
2024-02-10T07:20:39.025Z,5.70
2024-02-10T07:23:06.146Z,6.53
2024-02-10T07:25:38.755Z,6.87
2024-02-10T07:28:06.793Z,6.40
2024-02-10T07:30:34.594Z,6.47
2024-02-10T07:33:10.017Z,5.90
2024-02-10T07:35:37.217Z,7.23
2024-02-10T07:38:03.877Z,5.60
2024-02-10T07:40:30.685Z,7.07
2024-02-10T07:42:57.107Z,46.13
2024-02-10T07:45:24.391Z,7.30
2024-02-10T07:47:56.809Z,12.10
2024-02-10T07:50:23.239Z,12.20
2024-02-10T07:52:50.335Z,11.50
2024-02-10T07:55:17.761Z,11.63
2024-02-10T07:57:44.392Z,12.70
2024-02-10T08:00:11.107Z,13.27
2024-02-10T08:02:38.400Z,14.97
2024-02-10T08:05:06.090Z,14.53
2024-02-10T08:07:33.913Z,16.73
2024-02-10T08:10:01.844Z,20.00
2024-02-10T08:12:28.624Z,13.07
2024-02-10T08:14:56.244Z,11.57
2024-02-10T08:17:33.044Z,11.57
2024-02-10T08:20:01.214Z,13.53
2024-02-10T08:22:32.316Z,11.27
2024-02-10T08:25:00.271Z,11.47
2024-02-10T08:27:29.553Z,9.73
2024-02-10T08:29:56.965Z,9.10
2024-02-10T08:32:25.720Z,8.93
2024-02-10T08:34:52.635Z,8.83
2024-02-10T08:37:19.461Z,8.80
2024-02-10T08:39:46.948Z,8.70
2024-02-10T08:42:14.917Z,9.30
2024-02-10T08:44:42.194Z,8.37
2024-02-10T08:47:08.652Z,8.43
2024-02-10T08:49:36.545Z,9.47
2024-02-10T08:52:11.527Z,7.93
2024-02-10T08:54:43.341Z,8.73
2024-02-10T08:57:12.794Z,8.90
2024-02-10T08:59:42.288Z,9.17
2024-02-10T09:02:09.348Z,8.40
2024-02-10T09:04:35.906Z,7.43
2024-02-10T09:07:02.601Z,8.30
2024-02-10T09:09:29.291Z,12.40
2024-02-10T09:11:55.743Z,10.37
2024-02-10T09:14:22.308Z,7.77
2024-02-10T09:16:49.398Z,8.27
2024-02-10T09:19:17.304Z,7.20
2024-02-10T09:21:46.393Z,7.50
2024-02-10T09:24:16.557Z,8.20
2024-02-10T09:26:44.346Z,7.40
2024-02-10T09:29:10.793Z,7.73
2024-02-10T09:31:37.268Z,6.63
2024-02-10T09:34:05.489Z,6.60
2024-02-10T09:36:35.326Z,7.17
2024-02-10T09:39:04.373Z,6.17
2024-02-10T09:41:30.780Z,7.17
2024-02-10T09:43:57.300Z,5.23
2024-02-10T09:46:23.782Z,6.07
2024-02-10T09:48:52.883Z,4.20
2024-02-10T09:51:20.016Z,4.40
2024-02-10T09:53:46.764Z,3.90
2024-02-10T09:56:14.961Z,4.03
2024-02-10T09:58:50.365Z,3.87
2024-02-10T10:01:17.137Z,5.87
2024-02-10T10:03:43.990Z,4.50
2024-02-10T10:06:11.311Z,4.03
2024-02-10T10:08:40.185Z,3.93
2024-02-10T10:11:08.111Z,3.50
2024-02-10T10:13:35.826Z,4.10
2024-02-10T10:16:06.749Z,3.73
2024-02-10T10:18:34.648Z,4.20
2024-02-10T10:21:01.973Z,4.07
2024-02-10T10:23:32.112Z,2.83
2024-02-10T10:25:58.643Z,2.60
2024-02-10T10:28:25.139Z,3.40
2024-02-10T10:30:51.732Z,3.30
2024-02-10T10:33:20.169Z,4.50
2024-02-10T10:35:47.120Z,3.80
2024-02-10T10:38:14.482Z,3.63
2024-02-10T10:40:46.669Z,3.33
2024-02-10T10:43:18.191Z,2.80
2024-02-10T10:45:47.085Z,3.93
2024-02-10T10:48:14.916Z,3.50
2024-02-10T10:50:41.563Z,2.90
2024-02-10T10:53:12.075Z,2.90
2024-02-10T10:55:51.766Z,2.60
2024-02-10T10:58:21.475Z,4.43
2024-02-10T11:00:51.967Z,3.17
2024-02-10T11:03:19.545Z,5.20
2024-02-10T11:05:50.628Z,3.37
2024-02-10T11:08:27.548Z,2.73
2024-02-10T11:11:01.919Z,3.33
2024-02-10T11:13:31.376Z,3.17
2024-02-10T11:16:14.600Z,2.30
2024-02-10T11:18:45.523Z,2.63
2024-02-10T11:21:26.781Z,2.60
2024-02-10T11:23:57.866Z,4.43
2024-02-10T11:26:29.378Z,2.27
2024-02-10T11:29:06.405Z,3.20
2024-02-10T11:31:40.857Z,3.07
2024-02-10T11:34:19.350Z,2.40
2024-02-10T11:36:53.215Z,3.07
2024-02-10T11:39:21.094Z,2.60
2024-02-10T11:41:50.205Z,5.27
2024-02-10T11:44:17.611Z,3.23
2024-02-10T11:46:44.176Z,4.57
2024-02-10T11:49:12.850Z,3.67
2024-02-10T11:51:39.350Z,2.40
2024-02-10T11:54:06.504Z,2.40
2024-02-10T11:56:34.696Z,6.53
2024-02-10T11:59:02.433Z,2.60
2024-02-10T12:01:29.065Z,2.50
2024-02-10T12:03:55.833Z,2.97
2024-02-10T12:06:24.015Z,2.53
2024-02-10T12:08:51.407Z,3.30
2024-02-10T12:11:18.064Z,4.37
2024-02-10T12:13:44.587Z,2.53
2024-02-10T12:16:17.126Z,2.27
2024-02-10T12:18:47.853Z,2.30
2024-02-10T12:21:20.766Z,2.73
2024-02-10T12:23:48.752Z,3.43
2024-02-10T12:26:16.508Z,3.30
2024-02-10T12:28:42.982Z,2.87
2024-02-10T12:31:09.422Z,2.67
2024-02-10T12:33:35.982Z,2.27
2024-02-10T12:36:02.642Z,2.57
2024-02-10T12:38:29.412Z,3.40
2024-02-10T12:40:56.282Z,2.70
2024-02-10T12:43:24.902Z,3.40
2024-02-10T12:45:51.710Z,1.73
2024-02-10T12:48:18.727Z,2.00
2024-02-10T12:50:48.134Z,5.20
2024-02-10T12:53:15.347Z,2.07
2024-02-10T12:55:43.661Z,2.47
2024-02-10T12:58:10.503Z,2.30
2024-02-10T13:00:36.991Z,2.87
2024-02-10T13:03:04.248Z,2.33
2024-02-10T13:05:30.844Z,2.17
2024-02-10T13:07:57.984Z,2.70
2024-02-10T13:10:28.258Z,2.70
2024-02-10T13:12:57.873Z,3.13
2024-02-10T13:15:25.020Z,1.80
2024-02-10T13:17:53.091Z,2.50
2024-02-10T13:20:24.418Z,2.47
2024-02-10T13:22:59.795Z,2.53
2024-02-10T13:25:27.813Z,2.90
2024-02-10T13:27:54.348Z,3.50
2024-02-10T13:30:23.711Z,2.67
2024-02-10T13:32:52.293Z,4.73
2024-02-10T13:35:21.084Z,5.13
2024-02-10T13:38:07.872Z,2.63
2024-02-10T13:40:56.415Z,12.50
2024-02-10T13:43:43.163Z,10.00
2024-02-10T13:46:28.471Z,2.73
2024-02-10T13:49:13.839Z,2.60
2024-02-10T13:51:58.676Z,2.33
2024-02-10T13:54:43.414Z,1.43
2024-02-10T13:57:28.910Z,1.90
2024-02-10T13:59:55.372Z,2.37
2024-02-10T14:02:21.809Z,3.70
2024-02-10T14:04:48.328Z,3.23
2024-02-10T14:07:33.295Z,5.00
2024-02-10T14:10:10.965Z,2.17
2024-02-10T14:12:41.231Z,5.93
2024-02-10T14:15:25.496Z,2.50
2024-02-10T14:17:59.986Z,2.30
2024-02-10T14:20:28.501Z,2.93
2024-02-10T14:22:56.790Z,2.80
2024-02-10T14:25:33.307Z,2.00
2024-02-10T14:28:06.036Z,1.90
2024-02-10T14:30:43.811Z,2.20
2024-02-10T14:33:13.100Z,2.23
2024-02-10T14:36:14.874Z,3.30
2024-02-10T14:39:10.831Z,2.30
2024-02-10T14:41:40.025Z,2.07
2024-02-10T14:44:07.867Z,2.53
2024-02-10T14:46:34.306Z,2.53
2024-02-10T14:49:00.910Z,1.90
2024-02-10T14:51:27.464Z,3.00
2024-02-10T14:53:54.631Z,3.83
2024-02-10T14:56:24.697Z,2.90
2024-02-10T14:58:53.789Z,3.53
2024-02-10T15:01:20.410Z,5.50
2024-02-10T15:03:46.946Z,2.77
2024-02-10T15:06:24.628Z,3.90
2024-02-10T15:08:54.583Z,2.57
2024-02-10T15:11:22.911Z,3.23
2024-02-10T15:13:49.474Z,3.20
2024-02-10T15:16:22.996Z,4.70
2024-02-10T15:18:53.355Z,11.23
2024-02-10T15:21:21.660Z,3.37
2024-02-10T15:23:48.954Z,2.50
2024-02-10T15:26:16.809Z,2.20
2024-02-10T15:28:46.048Z,8.87
2024-02-10T15:31:12.635Z,2.80
2024-02-10T15:33:39.150Z,4.83
2024-02-10T15:36:25.567Z,3.77
2024-02-10T15:38:51.997Z,6.73
2024-02-10T15:41:20.018Z,2.97
2024-02-10T15:43:52.108Z,8.20
2024-02-10T15:46:19.923Z,5.57
2024-02-10T15:48:47.775Z,2.63
2024-02-10T15:51:17.543Z,16.20
2024-02-10T15:53:44.054Z,4.47
2024-02-10T15:56:11.449Z,3.33
2024-02-10T15:58:38.107Z,3.43
2024-02-10T16:01:04.808Z,8.73
2024-02-10T16:03:31.334Z,3.10
2024-02-10T16:05:59.664Z,2.90
2024-02-10T16:08:26.096Z,6.27
2024-02-10T16:10:54.493Z,4.37
2024-02-10T16:13:27.918Z,6.43
2024-02-10T16:15:54.830Z,7.83
2024-02-10T16:18:21.292Z,3.40
2024-02-10T16:20:48.670Z,10.13
2024-02-10T16:23:16.957Z,3.57
2024-02-10T16:25:46.436Z,3.03
2024-02-10T16:28:14.968Z,4.83
2024-02-10T16:30:42.340Z,3.53
2024-02-10T16:33:09.127Z,3.77
2024-02-10T16:35:36.762Z,3.97
2024-02-10T16:38:04.082Z,3.43
2024-02-10T16:40:32.077Z,3.63
2024-02-10T16:43:00.026Z,4.03
2024-02-10T16:45:27.957Z,3.70
2024-02-10T16:47:55.225Z,4.00
2024-02-10T16:50:25.546Z,3.80
2024-02-10T16:52:54.836Z,4.17
2024-02-10T16:55:22.619Z,4.10
2024-02-10T16:57:48.996Z,7.00
2024-02-10T17:00:25.371Z,3.53
2024-02-10T17:03:02.246Z,9.63
2024-02-10T17:05:33.427Z,3.80
2024-02-10T17:08:04.440Z,4.33
2024-02-10T17:10:35.711Z,3.77
2024-02-10T17:13:08.466Z,4.83
2024-02-10T17:15:38.354Z,5.13
2024-02-10T17:18:15.816Z,4.33
2024-02-10T17:20:42.996Z,3.37
2024-02-10T17:23:09.596Z,3.90
2024-02-10T17:25:36.210Z,4.10
2024-02-10T17:28:02.807Z,3.90
2024-02-10T17:30:32.325Z,5.67
2024-02-10T17:33:01.801Z,4.23
2024-02-10T17:35:28.419Z,3.63
2024-02-10T17:38:02.525Z,4.80
2024-02-10T17:40:31.909Z,3.70
2024-02-10T17:42:59.363Z,3.63
2024-02-10T17:45:27.801Z,4.50
2024-02-10T17:47:57.696Z,5.10
2024-02-10T17:50:30.549Z,4.80
2024-02-10T17:53:07.321Z,5.03
2024-02-10T17:55:35.162Z,5.17
2024-02-10T17:58:02.386Z,5.33
2024-02-10T18:00:28.838Z,7.10
2024-02-10T18:02:55.783Z,8.57
2024-02-10T18:05:26.584Z,7.30
2024-02-10T18:07:54.049Z,8.17
2024-02-10T18:10:20.530Z,7.07
2024-02-10T18:12:47.317Z,7.37
2024-02-10T18:15:16.635Z,10.90
2024-02-10T18:17:49.226Z,5.97
2024-02-10T18:20:16.670Z,7.10
2024-02-10T18:22:44.161Z,6.13
2024-02-10T18:25:14.556Z,7.60
2024-02-10T18:27:43.525Z,6.60
2024-02-10T18:30:12.535Z,6.47
2024-02-10T18:32:39.414Z,6.20
2024-02-10T18:35:06.178Z,7.90
2024-02-10T18:37:32.665Z,5.73
2024-02-10T18:40:05.651Z,5.80
2024-02-10T18:42:32.024Z,6.60
2024-02-10T18:44:58.421Z,5.93
2024-02-10T18:47:24.809Z,7.17
2024-02-10T18:49:54.277Z,6.67
2024-02-10T18:52:23.460Z,7.50
2024-02-10T18:54:50.061Z,6.27
2024-02-10T18:57:17.939Z,6.93
2024-02-10T18:59:45.830Z,8.00
2024-02-10T19:02:17.898Z,8.10
2024-02-10T19:04:49.015Z,7.37
2024-02-10T19:07:22.363Z,7.83
2024-02-10T19:09:49.210Z,7.20
2024-02-10T19:12:18.091Z,7.80
2024-02-10T19:14:46.164Z,7.37
2024-02-10T19:17:18.430Z,7.43
2024-02-10T19:19:45.474Z,8.63
2024-02-10T19:22:11.875Z,7.47
2024-02-10T19:24:41.617Z,10.10
2024-02-10T19:27:11.177Z,7.13
2024-02-10T19:29:38.984Z,7.13
2024-02-10T19:32:06.308Z,7.10
2024-02-10T19:34:34.126Z,7.90
2024-02-10T19:37:02.575Z,7.13
2024-02-10T19:39:29.001Z,8.00
2024-02-10T19:41:55.724Z,6.67
2024-02-10T19:44:25.940Z,8.80
2024-02-10T19:46:53.650Z,7.47
2024-02-10T19:49:21.212Z,9.40
2024-02-10T19:51:48.761Z,8.73
2024-02-10T19:54:15.760Z,9.33
2024-02-10T19:56:42.740Z,11.47
2024-02-10T19:59:11.215Z,9.43
2024-02-10T20:01:38.122Z,8.93
2024-02-10T20:04:07.559Z,13.37
2024-02-10T20:06:34.495Z,8.53
2024-02-10T20:09:05.323Z,9.53
2024-02-10T20:11:31.922Z,9.40
2024-02-10T20:17:11.619Z,9.77
2024-02-10T20:19:39.566Z,10.27
2024-02-10T20:22:07.871Z,9.40
2024-02-10T20:24:36.618Z,9.77
2024-02-10T20:27:04.431Z,10.93
2024-02-10T20:29:31.864Z,11.17
2024-02-10T20:31:59.489Z,12.50
2024-02-10T20:34:28.857Z,10.50
2024-02-10T20:36:57.374Z,12.33
2024-02-10T20:39:29.125Z,11.50
2024-02-10T20:41:57.766Z,13.43
2024-02-10T20:44:28.044Z,12.43
2024-02-10T20:46:55.919Z,12.50
2024-02-10T20:49:22.730Z,12.00
2024-02-10T20:51:49.455Z,12.80
2024-02-10T20:54:18.631Z,14.17
2024-02-10T20:56:45.086Z,13.20
2024-02-10T20:59:11.997Z,12.80
2024-02-10T21:01:38.899Z,12.70
2024-02-10T21:04:07.740Z,12.37
2024-02-10T21:06:41.008Z,13.03
2024-02-10T21:09:11.839Z,12.23
2024-02-10T21:11:38.853Z,14.13
2024-02-10T21:14:12.080Z,10.93
2024-02-10T21:16:40.842Z,15.90
2024-02-10T21:19:07.758Z,17.57
2024-02-10T21:21:34.453Z,14.60
2024-02-10T21:24:00.925Z,14.97
2024-02-10T21:26:27.631Z,13.27
2024-02-10T21:28:54.220Z,14.27
2024-02-10T21:31:20.704Z,12.60
2024-02-10T21:33:47.376Z,12.60
2024-02-10T21:36:18.102Z,11.63
2024-02-10T21:38:46.250Z,15.00
2024-02-10T21:41:12.704Z,12.40
2024-02-10T21:43:40.794Z,11.30
2024-02-10T21:46:07.264Z,12.13
2024-02-10T21:48:34.373Z,12.87
2024-02-10T21:51:02.201Z,14.27
2024-02-10T21:53:28.761Z,13.03
2024-02-10T21:55:55.314Z,13.83
2024-02-10T21:58:21.725Z,13.20
2024-02-10T22:00:48.811Z,11.63
2024-02-10T22:03:15.258Z,12.43
2024-02-10T22:05:42.054Z,12.13
2024-02-10T22:08:08.491Z,12.00
2024-02-10T22:10:36.720Z,11.13
2024-02-10T22:13:06.559Z,13.97
2024-02-10T22:15:33.135Z,13.47
2024-02-10T22:17:59.722Z,13.10
2024-02-10T22:20:26.170Z,11.57
2024-02-10T22:22:52.703Z,13.70
2024-02-10T22:25:21.556Z,13.67
2024-02-10T22:27:49.395Z,12.73
2024-02-10T22:30:20.239Z,11.47
2024-02-10T22:32:48.603Z,12.77
2024-02-10T22:35:20.072Z,12.77
2024-02-10T22:37:46.720Z,13.30
2024-02-10T22:40:23.565Z,12.63
2024-02-10T22:42:50.105Z,12.90
2024-02-10T22:45:16.552Z,12.83
2024-02-10T22:47:43.673Z,13.93
2024-02-10T22:50:10.959Z,13.20
2024-02-10T22:52:37.764Z,13.90
2024-02-10T22:55:07.416Z,12.47
2024-02-10T22:57:34.345Z,13.63
2024-02-10T23:00:00.756Z,13.97
2024-02-10T23:02:29.518Z,15.47
2024-02-10T23:04:57.858Z,16.10
2024-02-10T23:07:24.805Z,15.77
2024-02-10T23:09:51.342Z,23.63
2024-02-10T23:12:23.921Z,16.50
2024-02-10T23:14:54.064Z,14.00
2024-02-10T23:17:21.505Z,16.60
2024-02-10T23:19:54.087Z,16.83
2024-02-10T23:22:29.852Z,17.10
2024-02-10T23:24:57.594Z,15.73
2024-02-10T23:27:25.702Z,16.13
2024-02-10T23:29:55.806Z,22.50
2024-02-10T23:32:24.058Z,17.93
2024-02-10T23:34:51.398Z,18.30
2024-02-10T23:37:23.632Z,28.87
2024-02-10T23:39:51.033Z,14.80
2024-02-10T23:42:17.974Z,13.83
2024-02-10T23:44:46.907Z,15.20
2024-02-10T23:47:14.647Z,14.00
2024-02-10T23:49:45.350Z,17.60
2024-02-10T23:52:16.455Z,18.43
2024-02-10T23:54:43.129Z,15.27
2024-02-10T23:57:10.208Z,14.93
2024-02-10T23:59:39.488Z,17.70
